createdAt,value
2023-05-05T05:44:17.904Z,55.03
2023-05-05T05:46:21.077Z,54.75
2023-05-05T05:48:28.257Z,54.56
2023-05-05T05:50:31.246Z,54.14
2023-05-05T05:52:36.049Z,54.14
2023-05-05T05:54:38.893Z,53.90
2023-05-05T05:56:41.652Z,53.83
2023-05-05T05:58:45.211Z,53.65
2023-05-05T06:00:49.363Z,53.62
2023-05-05T06:02:52.383Z,53.54
2023-05-05T06:04:55.233Z,53.21
2023-05-05T06:06:58.424Z,53.33
2023-05-05T06:09:01.263Z,53.40
2023-05-05T06:11:04.212Z,53.39
2023-05-05T06:13:07.081Z,53.28
2023-05-05T06:15:11.049Z,53.41
2023-05-05T06:17:15.364Z,53.13
2023-05-05T06:19:18.521Z,53.23
2023-05-05T06:21:21.483Z,53.27
2023-05-05T06:23:24.303Z,53.18
2023-05-05T06:25:27.727Z,53.24
2023-05-05T06:27:33.358Z,53.12
2023-05-05T06:29:36.227Z,52.92
2023-05-05T06:31:39.217Z,52.76
2023-05-05T06:33:43.653Z,52.64
2023-05-05T06:35:47.750Z,52.61
2023-05-05T06:37:50.914Z,52.42
2023-05-05T06:39:53.773Z,52.33
2023-05-05T06:41:56.763Z,52.11
2023-05-05T06:43:59.590Z,52.16
2023-05-05T06:46:02.575Z,52.03
2023-05-05T06:48:05.822Z,52.23
2023-05-05T06:50:10.777Z,51.88
2023-05-05T06:52:13.925Z,52.11
2023-05-05T06:54:16.810Z,51.96
2023-05-05T06:56:22.139Z,52.16
2023-05-05T06:58:25.221Z,52.21
2023-05-05T07:00:28.150Z,52.05
2023-05-05T07:02:30.966Z,51.94
2023-05-05T07:04:33.977Z,51.96
2023-05-05T07:06:39.223Z,51.94
2023-05-05T07:08:42.128Z,51.66
2023-05-05T07:10:44.872Z,51.58
2023-05-05T07:12:47.728Z,51.45
2023-05-05T07:14:50.993Z,51.55
2023-05-05T07:16:54.641Z,51.38
2023-05-05T07:18:57.471Z,51.38
2023-05-05T07:21:02.373Z,51.21
2023-05-05T07:23:09.368Z,51.03
2023-05-05T07:25:12.401Z,50.82
2023-05-05T07:27:15.480Z,51.00
2023-05-05T07:29:18.465Z,50.85
2023-05-05T07:31:21.959Z,50.78
2023-05-05T07:33:24.858Z,50.77
2023-05-05T07:35:27.655Z,50.71
2023-05-05T07:37:30.488Z,50.55
2023-05-05T07:39:35.221Z,50.38
2023-05-05T07:41:38.101Z,50.61
2023-05-05T07:43:44.215Z,50.22
2023-05-05T07:45:47.723Z,50.39
2023-05-05T07:47:50.716Z,50.32
2023-05-05T07:49:53.562Z,50.03
2023-05-05T07:51:56.714Z,50.00
2023-05-05T07:54:02.359Z,50.07
2023-05-05T07:56:09.041Z,49.95
2023-05-05T07:58:12.317Z,49.88
2023-05-05T08:00:16.111Z,49.63
2023-05-05T08:02:19.016Z,49.46
2023-05-05T08:04:21.985Z,49.47
2023-05-05T08:06:25.181Z,49.43
2023-05-05T08:08:27.971Z,49.36
2023-05-05T08:10:30.757Z,49.42
2023-05-05T08:12:37.264Z,49.24
2023-05-05T08:14:42.328Z,49.08
2023-05-05T08:16:45.319Z,49.01
2023-05-05T08:18:48.097Z,49.28
2023-05-05T08:20:52.087Z,49.35
2023-05-05T08:22:55.278Z,49.03
2023-05-05T08:24:58.103Z,49.28
2023-05-05T08:27:01.542Z,49.05
2023-05-05T08:29:05.761Z,49.10
2023-05-05T08:31:09.108Z,48.83
2023-05-05T08:33:11.999Z,49.16
2023-05-05T08:35:15.260Z,48.88
2023-05-05T08:37:18.903Z,49.19
2023-05-05T08:39:21.735Z,49.07
2023-05-05T08:41:24.727Z,49.02
2023-05-05T08:43:30.123Z,49.15
2023-05-05T08:45:34.304Z,48.91
2023-05-05T08:47:39.103Z,48.79
2023-05-05T08:49:46.037Z,48.92
2023-05-05T08:51:49.736Z,49.04
2023-05-05T08:53:58.725Z,49.15
2023-05-05T08:56:03.767Z,48.93
2023-05-05T08:58:07.282Z,49.27
2023-05-05T09:00:12.000Z,49.14
2023-05-05T09:02:17.821Z,49.10
2023-05-05T09:04:21.049Z,48.98
2023-05-05T09:06:26.818Z,49.29
2023-05-05T09:08:30.633Z,49.16
2023-05-05T09:10:34.532Z,49.07
2023-05-05T09:12:40.351Z,49.26
2023-05-05T09:14:43.443Z,48.97
2023-05-05T09:16:46.400Z,48.95
2023-05-05T09:18:50.546Z,48.96
2023-05-05T09:20:53.459Z,48.89
2023-05-05T09:22:58.006Z,48.85
2023-05-05T09:25:00.806Z,48.78
2023-05-05T09:27:22.690Z,48.77
2023-05-05T09:29:25.565Z,48.53
2023-05-05T09:31:29.197Z,48.51
2023-05-05T09:33:32.689Z,48.49
2023-05-05T09:35:54.647Z,48.22
2023-05-05T09:37:59.479Z,48.06
2023-05-05T09:40:02.462Z,48.07
2023-05-05T09:42:05.660Z,47.80
2023-05-05T09:44:08.932Z,47.92
2023-05-05T09:46:11.830Z,47.83
2023-05-05T09:48:26.599Z,47.55
2023-05-05T09:50:32.527Z,47.54
2023-05-05T09:52:37.279Z,47.12
2023-05-05T09:54:40.238Z,47.41
2023-05-05T09:56:44.038Z,47.13
2023-05-05T09:58:47.027Z,46.92
2023-05-05T10:00:51.435Z,46.83
2023-05-05T10:03:03.891Z,46.58
2023-05-05T10:05:12.952Z,46.41
2023-05-05T10:07:25.154Z,46.12
2023-05-05T10:09:31.635Z,45.88
2023-05-05T10:11:35.327Z,45.83
2023-05-05T10:13:42.098Z,45.42
2023-05-05T10:15:46.887Z,45.51
2023-05-05T10:18:05.974Z,45.38
2023-05-05T10:20:14.048Z,45.21
2023-05-05T10:22:18.162Z,44.65
2023-05-05T10:24:35.689Z,44.72
2023-05-05T10:26:41.841Z,44.66
2023-05-05T10:28:46.743Z,44.30
2023-05-05T10:30:53.166Z,44.37
2023-05-05T10:33:18.222Z,43.89
2023-05-05T10:35:27.220Z,44.13
2023-05-05T10:37:30.966Z,43.91
2023-05-05T10:39:38.271Z,43.89
2023-05-05T10:41:41.361Z,43.54
2023-05-05T10:43:44.543Z,43.42
2023-05-05T10:45:47.608Z,43.23
2023-05-05T10:47:52.066Z,43.38
2023-05-05T10:49:59.129Z,43.45
2023-05-05T10:52:09.865Z,43.19
2023-05-05T10:54:21.324Z,43.08
2023-05-05T10:56:32.545Z,42.92
2023-05-05T10:58:44.116Z,42.93
2023-05-05T11:00:58.849Z,42.96
2023-05-05T11:03:21.497Z,42.94
2023-05-05T11:05:24.768Z,42.83
2023-05-05T11:07:28.106Z,42.93
2023-05-05T11:09:31.312Z,43.08
2023-05-05T11:12:04.130Z,42.77
2023-05-05T11:14:22.523Z,42.96
2023-05-05T11:16:47.683Z,42.80
2023-05-05T11:18:50.638Z,42.44
2023-05-05T11:21:19.191Z,42.57
2023-05-05T11:23:22.913Z,42.56
2023-05-05T11:25:47.331Z,42.87
2023-05-05T11:28:07.472Z,43.07
2023-05-05T11:30:13.245Z,42.86
2023-05-05T11:32:16.687Z,42.79
2023-05-05T11:34:29.069Z,42.57
2023-05-05T11:36:41.908Z,42.58
2023-05-05T11:39:10.356Z,42.56
2023-05-05T11:41:14.851Z,42.48
2023-05-05T11:43:21.275Z,42.63
2023-05-05T11:45:25.550Z,42.46
2023-05-05T11:47:37.285Z,42.18
2023-05-05T11:49:40.879Z,41.98
2023-05-05T11:51:44.484Z,42.25
2023-05-05T11:53:48.512Z,41.98
2023-05-05T11:56:06.638Z,41.80
2023-05-05T11:58:19.119Z,41.70
2023-05-05T12:00:33.472Z,41.78
2023-05-05T12:02:36.366Z,41.63
2023-05-05T12:04:40.955Z,42.06
2023-05-05T12:06:44.872Z,41.74
2023-05-05T12:08:47.982Z,41.63
2023-05-05T12:10:50.795Z,41.96
2023-05-05T12:12:55.377Z,41.63
2023-05-05T12:14:58.617Z,41.57
2023-05-05T12:17:08.803Z,41.68
2023-05-05T12:19:14.334Z,41.45
2023-05-05T12:21:17.650Z,41.48
2023-05-05T12:23:22.841Z,40.94
2023-05-05T12:25:26.664Z,41.29
2023-05-05T12:27:29.847Z,40.98
2023-05-05T12:29:32.910Z,41.05
2023-05-05T12:31:36.966Z,40.58
2023-05-05T12:33:42.248Z,40.49
2023-05-05T12:35:45.109Z,40.56
2023-05-05T12:37:48.080Z,40.64
2023-05-05T12:39:52.027Z,40.67
2023-05-05T12:42:03.544Z,40.15
2023-05-05T12:44:06.681Z,40.50
2023-05-05T12:46:12.732Z,40.40
2023-05-05T12:48:33.522Z,40.53
2023-05-05T12:50:40.667Z,40.49
2023-05-05T12:52:44.869Z,40.63
2023-05-05T12:54:55.157Z,40.80
2023-05-05T12:56:58.557Z,40.89
2023-05-05T12:59:02.081Z,41.22
2023-05-05T13:01:11.203Z,41.57
2023-05-05T13:03:20.542Z,41.65
2023-05-05T13:05:33.521Z,41.94
2023-05-05T13:07:50.342Z,41.77
2023-05-05T13:09:53.106Z,42.20
2023-05-05T13:11:56.421Z,42.19
2023-05-05T13:13:59.175Z,42.15
2023-05-05T13:16:02.000Z,42.24
2023-05-05T13:18:05.439Z,42.38
2023-05-05T13:20:10.020Z,42.18
2023-05-05T13:22:13.416Z,41.81
2023-05-05T13:26:23.244Z,42.18
2023-05-05T13:28:26.005Z,42.21
2023-05-05T13:30:28.893Z,41.93
2023-05-05T13:32:32.624Z,42.08
2023-05-05T13:34:35.799Z,41.70
2023-05-05T13:36:38.628Z,41.75
2023-05-05T13:38:41.455Z,41.61
2023-05-05T13:40:45.672Z,41.71
2023-05-05T13:42:48.427Z,41.37
2023-05-05T13:44:51.232Z,41.63
2023-05-05T13:46:54.287Z,41.47
2023-05-05T13:48:57.268Z,41.38
2023-05-05T13:51:00.020Z,41.40
2023-05-05T13:53:03.069Z,41.41
2023-05-05T13:55:07.218Z,41.49
2023-05-05T13:57:12.241Z,40.85
2023-05-05T13:59:15.262Z,40.88
2023-05-05T14:01:18.133Z,40.64
2023-05-05T14:03:20.864Z,41.05
2023-05-05T14:05:23.865Z,40.81
2023-05-05T14:07:27.597Z,40.47
2023-05-05T14:09:30.585Z,40.50
2023-05-05T14:11:33.575Z,40.79
2023-05-05T14:13:38.897Z,40.30
2023-05-05T14:15:41.624Z,40.37
2023-05-05T14:17:44.530Z,40.25
2023-05-05T14:19:47.273Z,40.63
2023-05-05T14:21:50.737Z,40.60
2023-05-05T14:23:54.566Z,40.65
2023-05-05T14:25:57.824Z,40.46
2023-05-05T14:28:03.649Z,40.25
2023-05-05T14:30:09.640Z,40.44
2023-05-05T14:32:12.531Z,40.64
2023-05-05T14:34:15.514Z,40.38
2023-05-05T14:36:18.435Z,40.66
2023-05-05T14:38:21.394Z,40.08
2023-05-05T14:40:24.457Z,40.19
2023-05-05T14:42:27.848Z,40.18
2023-05-05T14:44:31.233Z,39.83
2023-05-05T14:46:35.604Z,39.78
2023-05-05T14:48:38.826Z,40.16
2023-05-05T14:50:42.452Z,39.87
2023-05-05T14:52:45.339Z,39.73
2023-05-05T14:54:49.021Z,39.73
2023-05-05T14:56:51.957Z,40.14
2023-05-05T14:58:54.929Z,39.80
2023-05-05T15:00:57.964Z,40.05
2023-05-05T15:03:02.166Z,39.68
2023-05-05T15:05:05.418Z,39.87
2023-05-05T15:07:08.137Z,39.64
2023-05-05T15:09:10.810Z,39.84
2023-05-05T15:11:13.697Z,39.64
2023-05-05T15:13:17.168Z,39.79
2023-05-05T15:15:20.207Z,39.33
2023-05-05T15:17:22.922Z,39.62
2023-05-05T15:19:27.272Z,39.68
2023-05-05T15:21:29.974Z,39.39
2023-05-05T15:23:34.730Z,39.33
2023-05-05T15:25:37.818Z,39.49
2023-05-05T15:27:40.695Z,39.53
2023-05-05T15:29:43.398Z,39.08
2023-05-05T15:31:46.241Z,39.49
2023-05-05T15:33:49.478Z,39.38
2023-05-05T15:35:53.713Z,39.17
2023-05-05T15:37:56.555Z,38.94
2023-05-05T15:39:59.979Z,38.95
2023-05-05T15:42:03.791Z,39.17
2023-05-05T15:44:07.199Z,39.26
2023-05-05T15:46:10.254Z,39.55
2023-05-05T15:48:12.929Z,39.03
2023-05-05T15:50:16.098Z,39.33
2023-05-05T15:52:20.279Z,39.37
2023-05-05T15:54:22.985Z,39.34
2023-05-05T15:56:27.287Z,39.29
2023-05-05T15:58:30.038Z,38.90
2023-05-05T16:00:32.561Z,39.03
2023-05-05T16:02:35.418Z,39.00
2023-05-05T16:04:38.211Z,39.03
2023-05-05T16:06:41.031Z,39.21
2023-05-05T16:08:47.630Z,39.45
2023-05-05T16:10:50.759Z,39.43
2023-05-05T16:12:53.491Z,39.31
2023-05-05T16:14:56.354Z,38.96
2023-05-05T16:17:01.026Z,39.03
2023-05-05T16:19:04.374Z,39.17
2023-05-05T16:21:07.155Z,39.28
2023-05-05T16:23:09.895Z,39.02
2023-05-05T16:25:14.178Z,39.17
2023-05-05T16:27:17.519Z,39.15
2023-05-05T16:29:20.204Z,39.51
2023-05-05T16:31:23.088Z,39.61
2023-05-05T16:33:27.107Z,39.53
2023-05-05T16:35:29.820Z,39.92
2023-05-05T16:37:32.546Z,39.79
2023-05-05T16:39:40.035Z,39.73
2023-05-05T16:41:44.287Z,39.48
2023-05-05T16:43:47.285Z,39.59
2023-05-05T16:45:50.351Z,39.93
2023-05-05T16:47:55.413Z,39.89
2023-05-05T16:49:58.850Z,39.96
2023-05-05T16:52:01.570Z,39.94
2023-05-05T16:56:07.442Z,40.39
2023-05-05T16:58:12.366Z,40.10
2023-05-05T17:00:15.881Z,40.20
2023-05-05T17:02:18.701Z,40.29
2023-05-05T17:04:21.550Z,40.48
2023-05-05T17:06:24.367Z,40.46
2023-05-05T17:08:27.210Z,40.19
2023-05-05T17:10:30.476Z,40.34
2023-05-05T17:12:33.241Z,40.71
2023-05-05T17:14:37.888Z,40.36
2023-05-05T17:16:41.244Z,40.34
2023-05-05T17:18:44.193Z,40.39
2023-05-05T17:20:47.021Z,40.42
2023-05-05T17:22:49.756Z,40.64
2023-05-05T17:24:52.437Z,40.57
2023-05-05T17:26:55.183Z,40.68
2023-05-05T17:28:58.260Z,40.77
2023-05-05T17:31:02.443Z,41.02
2023-05-05T17:33:05.375Z,40.87
2023-05-05T17:35:08.925Z,40.86
2023-05-05T17:37:12.018Z,41.01
2023-05-05T17:39:14.772Z,41.05
2023-05-05T17:41:18.498Z,41.02
2023-05-05T17:43:21.125Z,41.07
2023-05-05T17:45:23.594Z,41.01
2023-05-05T17:47:27.959Z,40.98
2023-05-05T17:49:30.827Z,40.64
2023-05-05T17:51:33.550Z,40.85
2023-05-05T17:53:36.185Z,41.00
2023-05-05T17:55:38.874Z,40.72
2023-05-05T17:57:41.636Z,40.97
2023-05-05T17:59:44.496Z,41.12
2023-05-05T18:01:47.307Z,40.89
2023-05-05T18:03:52.387Z,41.00
2023-05-05T18:05:55.486Z,40.78
2023-05-05T18:07:58.596Z,40.78
2023-05-05T18:10:01.413Z,40.77
2023-05-05T18:12:04.604Z,40.87
2023-05-05T18:14:07.134Z,40.67
2023-05-05T18:16:09.853Z,40.89
2023-05-05T18:18:12.587Z,40.96
2023-05-05T18:20:17.737Z,40.96
2023-05-05T18:22:21.741Z,41.18
2023-05-05T18:24:24.825Z,41.55
2023-05-05T18:26:27.541Z,41.45
2023-05-05T18:28:30.409Z,41.48
2023-05-05T18:30:33.467Z,41.73
2023-05-05T18:32:36.344Z,41.41
2023-05-05T18:34:39.220Z,42.06
2023-05-05T18:36:43.503Z,41.92
2023-05-05T18:38:46.347Z,41.84
2023-05-05T18:40:49.129Z,41.77
2023-05-05T18:42:52.188Z,42.24
2023-05-05T18:44:55.034Z,42.24
2023-05-05T18:46:57.782Z,42.24
2023-05-05T18:49:00.753Z,42.43
2023-05-05T18:51:03.911Z,42.74
2023-05-05T18:53:08.110Z,42.39
2023-05-05T18:55:11.608Z,42.37
2023-05-05T18:57:14.893Z,42.42
2023-05-05T18:59:17.752Z,42.69
2023-05-05T19:01:21.005Z,42.77
2023-05-05T19:03:24.227Z,42.42
2023-05-05T19:05:28.078Z,42.88
2023-05-05T19:07:35.416Z,42.59
2023-05-05T19:09:40.018Z,42.44
2023-05-05T19:11:42.974Z,42.53
2023-05-05T19:13:45.778Z,42.57
2023-05-05T19:15:49.248Z,42.85
2023-05-05T19:17:52.034Z,42.96
2023-05-05T19:19:54.938Z,42.61
2023-05-05T19:21:57.966Z,42.60
2023-05-05T19:24:00.978Z,42.75
2023-05-05T19:26:05.682Z,42.78
2023-05-05T19:28:08.558Z,42.83
2023-05-05T19:30:12.247Z,43.19
2023-05-05T19:32:15.528Z,43.39
2023-05-05T19:34:18.357Z,42.87
2023-05-05T19:36:21.356Z,43.25
2023-05-05T19:38:24.225Z,43.24
2023-05-05T19:40:27.307Z,43.10
2023-05-05T19:42:31.378Z,43.11
2023-05-05T19:44:34.211Z,43.12
2023-05-05T19:46:37.025Z,43.36
2023-05-05T19:48:40.050Z,43.27
2023-05-05T19:50:42.841Z,43.34
2023-05-05T19:52:45.701Z,43.32
2023-05-05T19:54:48.425Z,43.66
2023-05-05T19:56:55.277Z,43.62
2023-05-05T19:59:01.475Z,43.68
2023-05-05T20:01:04.287Z,43.60
2023-05-05T20:03:08.742Z,43.74
2023-05-05T20:05:13.770Z,43.63
2023-05-05T20:07:17.803Z,44.09
2023-05-05T20:09:20.703Z,43.74
2023-05-05T20:11:23.723Z,44.16
2023-05-05T20:13:26.473Z,44.39
2023-05-05T20:15:31.381Z,44.45
2023-05-05T20:17:35.509Z,44.08
2023-05-05T20:19:38.442Z,44.19
2023-05-05T20:21:41.394Z,44.42
2023-05-05T20:23:45.094Z,44.28
2023-05-05T20:25:48.273Z,44.16
2023-05-05T20:27:52.098Z,44.20
2023-05-05T20:29:54.879Z,44.39
2023-05-05T20:31:59.180Z,44.46
2023-05-05T20:34:02.039Z,44.60
2023-05-05T20:36:05.221Z,44.89
2023-05-05T20:38:09.591Z,44.69
2023-05-05T20:40:13.494Z,44.60
2023-05-05T20:42:16.474Z,44.72
2023-05-05T20:44:19.354Z,44.81
2023-05-05T20:46:22.186Z,44.86
2023-05-05T20:48:26.304Z,44.87
2023-05-05T20:50:29.123Z,45.26
2023-05-05T20:52:31.874Z,45.01
2023-05-05T20:54:34.784Z,45.28
2023-05-05T20:56:37.560Z,44.98
2023-05-05T20:58:40.374Z,45.10
2023-05-05T21:00:43.215Z,45.30
2023-05-05T21:02:46.167Z,45.22
2023-05-05T21:04:50.478Z,45.29
2023-05-05T21:07:12.790Z,45.36
2023-05-05T21:09:35.160Z,45.38
2023-05-05T21:11:56.683Z,45.23
2023-05-05T21:14:18.034Z,45.01
2023-05-05T21:16:21.897Z,45.22
2023-05-05T21:18:25.816Z,45.06
